sensor_id;sensor_type;location;lat;lon;timestamp;P1;durP1;ratioP1;P2;durP2;ratioP2
57325;SDS011;43161;50.950;18.224;2024-03-23T00:55:04;31.00;;;12.90;;
57325;SDS011;43161;50.950;18.224;2024-03-23T00:57:30;32.50;;;14.30;;
57325;SDS011;43161;50.950;18.224;2024-03-23T00:59:55;32.50;;;16.00;;
57325;SDS011;43161;50.950;18.224;2024-03-23T01:02:21;32.80;;;15.30;;
57325;SDS011;43161;50.950;18.224;2024-03-23T01:04:46;42.40;;;18.90;;
57325;SDS011;43161;50.950;18.224;2024-03-23T01:07:12;32.20;;;15.80;;
57325;SDS011;43161;50.950;18.224;2024-03-23T01:09:37;40.80;;;18.10;;
57325;SDS011;43161;50.950;18.224;2024-03-23T01:12:04;39.60;;;17.90;;
57325;SDS011;43161;50.950;18.224;2024-03-23T01:14:30;39.60;;;18.30;;
57325;SDS011;43161;50.950;18.224;2024-03-23T01:16:56;41.10;;;18.20;;
57325;SDS011;43161;50.950;18.224;2024-03-23T01:19:21;40.10;;;19.00;;
57325;SDS011;43161;50.950;18.224;2024-03-23T01:21:47;40.40;;;19.40;;
57325;SDS011;43161;50.950;18.224;2024-03-23T01:24:13;39.90;;;19.00;;
57325;SDS011;43161;50.950;18.224;2024-03-23T01:26:40;38.50;;;20.30;;
57325;SDS011;43161;50.950;18.224;2024-03-23T01:29:05;37.20;;;17.50;;
57325;SDS011;43161;50.950;18.224;2024-03-23T01:31:31;37.60;;;17.30;;
57325;SDS011;43161;50.950;18.224;2024-03-23T01:33:57;39.60;;;19.20;;
57325;SDS011;43161;50.950;18.224;2024-03-23T01:36:23;40.20;;;20.00;;
57325;SDS011;43161;50.950;18.224;2024-03-23T01:38:49;42.10;;;20.20;;
57325;SDS011;43161;50.950;18.224;2024-03-23T01:41:15;41.40;;;19.70;;
57325;SDS011;43161;50.950;18.224;2024-03-23T01:43:40;42.00;;;20.70;;
57325;SDS011;43161;50.950;18.224;2024-03-23T01:46:06;42.70;;;20.40;;
57325;SDS011;43161;50.950;18.224;2024-03-23T01:48:32;43.20;;;22.20;;
57325;SDS011;43161;50.950;18.224;2024-03-23T01:50:57;46.00;;;25.30;;
57325;SDS011;43161;50.950;18.224;2024-03-23T01:53:23;41.20;;;21.70;;
57325;SDS011;43161;50.950;18.224;2024-03-23T01:55:50;40.60;;;19.00;;
57325;SDS011;43161;50.950;18.224;2024-03-23T01:58:16;39.10;;;19.30;;
57325;SDS011;43161;50.950;18.224;2024-03-23T02:00:42;37.50;;;19.10;;
57325;SDS011;43161;50.950;18.224;2024-03-23T02:05:50;34.90;;;16.90;;
57325;SDS011;43161;50.950;18.224;2024-03-23T02:08:19;30.70;;;15.70;;
57325;SDS011;43161;50.950;18.224;2024-03-23T02:10:46;36.50;;;15.60;;
57325;SDS011;43161;50.950;18.224;2024-03-23T02:13:13;35.00;;;19.60;;
57325;SDS011;43161;50.950;18.224;2024-03-23T02:15:39;34.20;;;18.00;;
57325;SDS011;43161;50.950;18.224;2024-03-23T02:18:06;35.20;;;16.50;;
57325;SDS011;43161;50.950;18.224;2024-03-23T02:20:32;31.60;;;15.30;;
57325;SDS011;43161;50.950;18.224;2024-03-23T02:22:58;32.50;;;15.90;;
57325;SDS011;43161;50.950;18.224;2024-03-23T02:25:24;32.60;;;15.70;;
57325;SDS011;43161;50.950;18.224;2024-03-23T02:27:49;33.00;;;15.60;;
57325;SDS011;43161;50.950;18.224;2024-03-23T02:30:15;31.70;;;15.30;;
57325;SDS011;43161;50.950;18.224;2024-03-23T02:32:40;34.00;;;16.00;;
57325;SDS011;43161;50.950;18.224;2024-03-23T02:35:06;37.30;;;18.40;;
57325;SDS011;43161;50.950;18.224;2024-03-23T02:37:31;36.60;;;17.00;;
57325;SDS011;43161;50.950;18.224;2024-03-23T02:39:58;41.60;;;20.60;;
57325;SDS011;43161;50.950;18.224;2024-03-23T02:42:23;39.50;;;18.40;;
57325;SDS011;43161;50.950;18.224;2024-03-23T02:44:49;36.00;;;17.90;;
57325;SDS011;43161;50.950;18.224;2024-03-23T02:47:14;36.20;;;17.30;;
57325;SDS011;43161;50.950;18.224;2024-03-23T02:49:41;37.50;;;17.30;;
57325;SDS011;43161;50.950;18.224;2024-03-23T02:52:06;41.50;;;23.40;;
57325;SDS011;43161;50.950;18.224;2024-03-23T02:54:32;46.40;;;29.40;;
57325;SDS011;43161;50.950;18.224;2024-03-23T02:56:57;44.70;;;26.80;;
57325;SDS011;43161;50.950;18.224;2024-03-23T02:59:23;44.20;;;20.70;;
57325;SDS011;43161;50.950;18.224;2024-03-23T03:01:48;42.40;;;21.80;;
57325;SDS011;43161;50.950;18.224;2024-03-23T03:04:14;41.90;;;21.60;;
57325;SDS011;43161;50.950;18.224;2024-03-23T03:06:40;46.30;;;19.80;;
57325;SDS011;43161;50.950;18.224;2024-03-23T03:09:06;40.40;;;18.40;;
57325;SDS011;43161;50.950;18.224;2024-03-23T03:11:31;41.00;;;19.80;;
57325;SDS011;43161;50.950;18.224;2024-03-23T03:13:57;40.20;;;18.70;;
57325;SDS011;43161;50.950;18.224;2024-03-23T03:16:25;39.90;;;18.50;;
57325;SDS011;43161;50.950;18.224;2024-03-23T03:18:52;36.80;;;17.50;;
57325;SDS011;43161;50.950;18.224;2024-03-23T03:21:18;40.80;;;19.10;;
57325;SDS011;43161;50.950;18.224;2024-03-23T03:23:44;43.10;;;19.40;;
57325;SDS011;43161;50.950;18.224;2024-03-23T03:26:09;38.40;;;21.00;;
57325;SDS011;43161;50.950;18.224;2024-03-23T03:28:35;41.70;;;20.30;;
57325;SDS011;43161;50.950;18.224;2024-03-23T03:31:01;35.30;;;16.90;;
57325;SDS011;43161;50.950;18.224;2024-03-23T03:33:26;34.70;;;17.10;;
57325;SDS011;43161;50.950;18.224;2024-03-23T03:35:53;39.90;;;18.10;;
57325;SDS011;43161;50.950;18.224;2024-03-23T03:38:19;42.20;;;19.50;;
57325;SDS011;43161;50.950;18.224;2024-03-23T03:40:45;45.60;;;23.20;;
57325;SDS011;43161;50.950;18.224;2024-03-23T03:43:10;43.30;;;18.10;;
57325;SDS011;43161;50.950;18.224;2024-03-23T03:45:36;44.10;;;20.10;;
57325;SDS011;43161;50.950;18.224;2024-03-23T03:48:02;44.60;;;19.30;;
57325;SDS011;43161;50.950;18.224;2024-03-23T03:50:28;33.50;;;16.60;;
57325;SDS011;43161;50.950;18.224;2024-03-23T03:52:53;36.40;;;16.20;;
57325;SDS011;43161;50.950;18.224;2024-03-23T03:55:19;36.90;;;17.60;;
57325;SDS011;43161;50.950;18.224;2024-03-23T03:57:44;37.70;;;17.70;;
57325;SDS011;43161;50.950;18.224;2024-03-23T04:00:10;33.10;;;15.90;;
57325;SDS011;43161;50.950;18.224;2024-03-23T04:02:37;33.10;;;15.40;;
57325;SDS011;43161;50.950;18.224;2024-03-23T04:05:03;34.60;;;16.10;;
57325;SDS011;43161;50.950;18.224;2024-03-23T04:07:29;31.10;;;14.30;;
57325;SDS011;43161;50.950;18.224;2024-03-23T04:09:54;34.60;;;15.90;;
57325;SDS011;43161;50.950;18.224;2024-03-23T04:12:20;31.10;;;13.60;;
57325;SDS011;43161;50.950;18.224;2024-03-23T04:14:45;31.40;;;15.30;;
57325;SDS011;43161;50.950;18.224;2024-03-23T04:17:11;28.80;;;13.90;;
57325;SDS011;43161;50.950;18.224;2024-03-23T04:19:37;29.50;;;13.80;;
57325;SDS011;43161;50.950;18.224;2024-03-23T04:22:02;29.40;;;13.20;;
57325;SDS011;43161;50.950;18.224;2024-03-23T04:24:29;33.50;;;17.70;;
57325;SDS011;43161;50.950;18.224;2024-03-23T04:26:54;44.00;;;25.50;;
57325;SDS011;43161;50.950;18.224;2024-03-23T04:29:20;36.30;;;19.60;;
57325;SDS011;43161;50.950;18.224;2024-03-23T04:31:45;34.50;;;17.20;;
57325;SDS011;43161;50.950;18.224;2024-03-23T04:34:11;34.10;;;16.40;;
57325;SDS011;43161;50.950;18.224;2024-03-23T04:36:36;33.40;;;17.30;;
57325;SDS011;43161;50.950;18.224;2024-03-23T04:39:02;35.70;;;17.70;;
57325;SDS011;43161;50.950;18.224;2024-03-23T04:41:28;38.40;;;19.00;;
57325;SDS011;43161;50.950;18.224;2024-03-23T04:43:54;40.70;;;20.30;;
57325;SDS011;43161;50.950;18.224;2024-03-23T04:46:20;39.40;;;19.90;;
57325;SDS011;43161;50.950;18.224;2024-03-23T04:48:46;39.10;;;18.30;;
57325;SDS011;43161;50.950;18.224;2024-03-23T04:51:19;37.10;;;17.60;;
57325;SDS011;43161;50.950;18.224;2024-03-23T04:53:46;34.90;;;16.90;;
57325;SDS011;43161;50.950;18.224;2024-03-23T04:56:13;33.80;;;15.70;;
57325;SDS011;43161;50.950;18.224;2024-03-23T04:58:40;34.40;;;17.00;;
57325;SDS011;43161;50.950;18.224;2024-03-23T05:01:05;37.70;;;17.40;;
57325;SDS011;43161;50.950;18.224;2024-03-23T05:03:31;37.70;;;21.30;;
57325;SDS011;43161;50.950;18.224;2024-03-23T05:05:56;32.80;;;16.30;;
57325;SDS011;43161;50.950;18.224;2024-03-23T05:08:22;32.90;;;14.80;;
57325;SDS011;43161;50.950;18.224;2024-03-23T05:10:47;29.60;;;14.40;;
57325;SDS011;43161;50.950;18.224;2024-03-23T05:13:13;31.70;;;15.00;;
57325;SDS011;43161;50.950;18.224;2024-03-23T05:15:38;29.20;;;13.40;;
57325;SDS011;43161;50.950;18.224;2024-03-23T05:18:04;31.80;;;15.60;;
57325;SDS011;43161;50.950;18.224;2024-03-23T05:20:30;29.10;;;14.90;;
57325;SDS011;43161;50.950;18.224;2024-03-23T05:22:56;27.40;;;13.10;;
57325;SDS011;43161;50.950;18.224;2024-03-23T05:25:22;26.90;;;13.80;;
57325;SDS011;43161;50.950;18.224;2024-03-23T05:27:48;29.90;;;14.20;;
57325;SDS011;43161;50.950;18.224;2024-03-23T05:30:14;25.40;;;13.40;;
57325;SDS011;43161;50.950;18.224;2024-03-23T05:32:40;26.60;;;13.70;;
57325;SDS011;43161;50.950;18.224;2024-03-23T05:35:07;26.70;;;13.00;;
57325;SDS011;43161;50.950;18.224;2024-03-23T05:37:33;27.10;;;13.30;;
57325;SDS011;43161;50.950;18.224;2024-03-23T05:40:02;27.30;;;13.40;;
57325;SDS011;43161;50.950;18.224;2024-03-23T05:42:29;30.20;;;14.10;;
57325;SDS011;43161;50.950;18.224;2024-03-23T05:44:54;31.50;;;14.70;;
57325;SDS011;43161;50.950;18.224;2024-03-23T05:47:20;31.70;;;17.00;;
57325;SDS011;43161;50.950;18.224;2024-03-23T05:49:48;42.30;;;27.10;;
57325;SDS011;43161;50.950;18.224;2024-03-23T05:52:14;35.70;;;23.00;;
57325;SDS011;43161;50.950;18.224;2024-03-23T05:54:39;32.30;;;15.50;;
57325;SDS011;43161;50.950;18.224;2024-03-23T05:57:05;28.70;;;13.80;;
57325;SDS011;43161;50.950;18.224;2024-03-23T05:59:34;31.90;;;16.00;;
57325;SDS011;43161;50.950;18.224;2024-03-23T06:01:59;31.20;;;16.50;;
57325;SDS011;43161;50.950;18.224;2024-03-23T06:04:25;33.10;;;16.90;;
57325;SDS011;43161;50.950;18.224;2024-03-23T06:06:53;32.10;;;16.20;;
57325;SDS011;43161;50.950;18.224;2024-03-23T06:09:19;27.80;;;14.70;;
57325;SDS011;43161;50.950;18.224;2024-03-23T06:11:45;32.30;;;16.20;;
57325;SDS011;43161;50.950;18.224;2024-03-23T06:14:10;31.70;;;15.70;;
57325;SDS011;43161;50.950;18.224;2024-03-23T06:16:36;31.50;;;16.40;;
57325;SDS011;43161;50.950;18.224;2024-03-23T06:19:01;29.60;;;15.80;;
57325;SDS011;43161;50.950;18.224;2024-03-23T06:21:32;30.50;;;16.10;;
57325;SDS011;43161;50.950;18.224;2024-03-23T06:23:58;31.70;;;16.60;;
57325;SDS011;43161;50.950;18.224;2024-03-23T06:26:24;33.50;;;16.30;;
57325;SDS011;43161;50.950;18.224;2024-03-23T06:28:49;30.50;;;15.30;;
57325;SDS011;43161;50.950;18.224;2024-03-23T06:31:15;30.00;;;15.10;;
57325;SDS011;43161;50.950;18.224;2024-03-23T06:33:41;30.30;;;14.70;;
57325;SDS011;43161;50.950;18.224;2024-03-23T06:36:08;27.80;;;14.20;;
57325;SDS011;43161;50.950;18.224;2024-03-23T06:38:35;31.30;;;16.10;;
57325;SDS011;43161;50.950;18.224;2024-03-23T06:41:02;33.20;;;15.80;;
57325;SDS011;43161;50.950;18.224;2024-03-23T06:43:28;30.80;;;16.20;;
57325;SDS011;43161;50.950;18.224;2024-03-23T06:45:54;29.80;;;15.20;;
57325;SDS011;43161;50.950;18.224;2024-03-23T06:48:20;31.50;;;17.90;;
57325;SDS011;43161;50.950;18.224;2024-03-23T06:50:46;28.90;;;15.80;;
57325;SDS011;43161;50.950;18.224;2024-03-23T06:53:12;30.90;;;15.70;;
57325;SDS011;43161;50.950;18.224;2024-03-23T06:55:38;31.20;;;14.50;;
57325;SDS011;43161;50.950;18.224;2024-03-23T06:58:04;31.70;;;15.80;;
57325;SDS011;43161;50.950;18.224;2024-03-23T07:00:30;29.90;;;15.40;;
57325;SDS011;43161;50.950;18.224;2024-03-23T07:02:56;26.80;;;13.80;;
57325;SDS011;43161;50.950;18.224;2024-03-23T07:05:21;27.00;;;14.20;;
57325;SDS011;43161;50.950;18.224;2024-03-23T07:07:47;27.30;;;13.30;;
57325;SDS011;43161;50.950;18.224;2024-03-23T07:10:12;25.30;;;14.70;;
57325;SDS011;43161;50.950;18.224;2024-03-23T07:12:38;26.40;;;14.10;;
57325;SDS011;43161;50.950;18.224;2024-03-23T07:15:03;25.90;;;14.40;;
57325;SDS011;43161;50.950;18.224;2024-03-23T07:17:29;27.40;;;12.50;;
57325;SDS011;43161;50.950;18.224;2024-03-23T07:19:55;27.70;;;13.50;;
57325;SDS011;43161;50.950;18.224;2024-03-23T07:22:21;26.10;;;14.70;;
57325;SDS011;43161;50.950;18.224;2024-03-23T07:24:47;28.90;;;14.20;;
57325;SDS011;43161;50.950;18.224;2024-03-23T07:27:12;26.10;;;13.60;;
57325;SDS011;43161;50.950;18.224;2024-03-23T07:29:38;24.20;;;11.90;;
57325;SDS011;43161;50.950;18.224;2024-03-23T07:32:03;25.30;;;13.00;;
57325;SDS011;43161;50.950;18.224;2024-03-23T07:34:29;27.60;;;12.90;;
57325;SDS011;43161;50.950;18.224;2024-03-23T07:36:55;24.00;;;12.80;;
57325;SDS011;43161;50.950;18.224;2024-03-23T07:39:20;26.10;;;13.80;;
57325;SDS011;43161;50.950;18.224;2024-03-23T07:41:46;23.10;;;12.50;;
57325;SDS011;43161;50.950;18.224;2024-03-23T07:44:11;25.00;;;12.50;;
57325;SDS011;43161;50.950;18.224;2024-03-23T07:46:37;23.60;;;12.40;;
57325;SDS011;43161;50.950;18.224;2024-03-23T07:49:06;24.30;;;12.20;;
57325;SDS011;43161;50.950;18.224;2024-03-23T07:51:31;22.50;;;11.00;;
57325;SDS011;43161;50.950;18.224;2024-03-23T07:53:58;24.10;;;11.70;;
57325;SDS011;43161;50.950;18.224;2024-03-23T07:56:23;23.70;;;12.70;;
57325;SDS011;43161;50.950;18.224;2024-03-23T07:58:49;27.90;;;13.20;;
57325;SDS011;43161;50.950;18.224;2024-03-23T08:01:15;21.80;;;11.50;;
57325;SDS011;43161;50.950;18.224;2024-03-23T08:03:45;24.40;;;11.30;;
57325;SDS011;43161;50.950;18.224;2024-03-23T08:06:11;23.40;;;11.70;;
57325;SDS011;43161;50.950;18.224;2024-03-23T08:08:39;23.60;;;12.80;;
57325;SDS011;43161;50.950;18.224;2024-03-23T08:11:06;24.90;;;10.70;;
57325;SDS011;43161;50.950;18.224;2024-03-23T08:13:32;22.30;;;10.80;;
57325;SDS011;43161;50.950;18.224;2024-03-23T08:15:58;22.40;;;11.30;;
57325;SDS011;43161;50.950;18.224;2024-03-23T08:18:24;22.90;;;11.30;;
57325;SDS011;43161;50.950;18.224;2024-03-23T08:23:32;20.20;;;10.60;;
57325;SDS011;43161;50.950;18.224;2024-03-23T08:26:02;21.40;;;9.80;;
57325;SDS011;43161;50.950;18.224;2024-03-23T08:28:29;20.10;;;10.60;;
57325;SDS011;43161;50.950;18.224;2024-03-23T08:30:55;21.50;;;10.90;;
57325;SDS011;43161;50.950;18.224;2024-03-23T08:33:21;19.10;;;10.60;;
57325;SDS011;43161;50.950;18.224;2024-03-23T08:35:53;18.30;;;10.30;;
57325;SDS011;43161;50.950;18.224;2024-03-23T08:38:26;19.50;;;9.10;;
57325;SDS011;43161;50.950;18.224;2024-03-23T08:40:59;18.10;;;9.60;;
57325;SDS011;43161;50.950;18.224;2024-03-23T08:43:29;18.80;;;9.80;;
57325;SDS011;43161;50.950;18.224;2024-03-23T08:48:42;20.40;;;8.80;;
57325;SDS011;43161;50.950;18.224;2024-03-23T08:51:09;21.00;;;10.40;;
57325;SDS011;43161;50.950;18.224;2024-03-23T08:53:36;17.10;;;9.90;;
57325;SDS011;43161;50.950;18.224;2024-03-23T08:56:03;18.20;;;9.70;;
57325;SDS011;43161;50.950;18.224;2024-03-23T08:58:29;18.10;;;9.70;;
57325;SDS011;43161;50.950;18.224;2024-03-23T09:00:56;17.10;;;8.90;;
57325;SDS011;43161;50.950;18.224;2024-03-23T09:03:23;19.60;;;9.50;;
57325;SDS011;43161;50.950;18.224;2024-03-23T09:05:49;17.80;;;9.20;;
57325;SDS011;43161;50.950;18.224;2024-03-23T09:08:16;17.30;;;9.00;;
57325;SDS011;43161;50.950;18.224;2024-03-23T09:10:41;17.80;;;8.80;;
57325;SDS011;43161;50.950;18.224;2024-03-23T09:13:07;17.40;;;9.30;;
57325;SDS011;43161;50.950;18.224;2024-03-23T09:15:37;16.20;;;8.10;;
57325;SDS011;43161;50.950;18.224;2024-03-23T09:18:03;16.80;;;8.90;;
57325;SDS011;43161;50.950;18.224;2024-03-23T09:20:32;18.40;;;9.10;;
57325;SDS011;43161;50.950;18.224;2024-03-23T09:22:59;16.70;;;9.20;;
57325;SDS011;43161;50.950;18.224;2024-03-23T09:25:24;19.40;;;9.20;;
57325;SDS011;43161;50.950;18.224;2024-03-23T09:27:50;17.00;;;9.30;;
57325;SDS011;43161;50.950;18.224;2024-03-23T09:30:16;19.60;;;8.90;;
57325;SDS011;43161;50.950;18.224;2024-03-23T09:32:43;18.10;;;9.30;;
57325;SDS011;43161;50.950;18.224;2024-03-23T09:35:09;18.50;;;9.60;;
57325;SDS011;43161;50.950;18.224;2024-03-23T09:37:35;16.90;;;9.30;;
57325;SDS011;43161;50.950;18.224;2024-03-23T09:40:02;17.90;;;9.00;;
57325;SDS011;43161;50.950;18.224;2024-03-23T09:42:28;22.20;;;10.80;;
57325;SDS011;43161;50.950;18.224;2024-03-23T09:44:54;17.40;;;9.60;;
57325;SDS011;43161;50.950;18.224;2024-03-23T09:47:22;19.70;;;9.70;;
57325;SDS011;43161;50.950;18.224;2024-03-23T09:49:49;17.30;;;8.90;;
57325;SDS011;43161;50.950;18.224;2024-03-23T09:52:14;17.30;;;9.20;;
57325;SDS011;43161;50.950;18.224;2024-03-23T09:54:40;17.10;;;8.90;;
57325;SDS011;43161;50.950;18.224;2024-03-23T09:57:06;17.60;;;8.60;;
57325;SDS011;43161;50.950;18.224;2024-03-23T09:59:32;17.80;;;8.40;;
57325;SDS011;43161;50.950;18.224;2024-03-23T10:01:59;15.00;;;8.80;;
57325;SDS011;43161;50.950;18.224;2024-03-23T10:07:12;17.30;;;8.30;;
57325;SDS011;43161;50.950;18.224;2024-03-23T10:09:38;18.20;;;8.80;;
57325;SDS011;43161;50.950;18.224;2024-03-23T10:12:11;18.30;;;8.70;;
57325;SDS011;43161;50.950;18.224;2024-03-23T10:14:42;16.50;;;7.90;;
57325;SDS011;43161;50.950;18.224;2024-03-23T10:19:38;15.70;;;8.40;;
57325;SDS011;43161;50.950;18.224;2024-03-23T10:22:05;15.20;;;8.10;;
57325;SDS011;43161;50.950;18.224;2024-03-23T10:24:31;16.00;;;9.10;;
57325;SDS011;43161;50.950;18.224;2024-03-23T10:26:57;17.80;;;9.40;;
57325;SDS011;43161;50.950;18.224;2024-03-23T10:29:23;17.20;;;7.90;;
57325;SDS011;43161;50.950;18.224;2024-03-23T10:31:49;15.60;;;8.30;;
57325;SDS011;43161;50.950;18.224;2024-03-23T10:34:15;15.10;;;7.70;;
57325;SDS011;43161;50.950;18.224;2024-03-23T10:36:41;16.80;;;8.10;;
57325;SDS011;43161;50.950;18.224;2024-03-23T10:39:07;15.20;;;7.70;;
57325;SDS011;43161;50.950;18.224;2024-03-23T10:41:33;15.20;;;8.00;;
57325;SDS011;43161;50.950;18.224;2024-03-23T10:43:58;15.80;;;8.10;;
57325;SDS011;43161;50.950;18.224;2024-03-23T10:46:25;14.20;;;7.60;;
57325;SDS011;43161;50.950;18.224;2024-03-23T10:48:50;15.50;;;7.20;;
57325;SDS011;43161;50.950;18.224;2024-03-23T10:51:16;14.30;;;7.10;;
57325;SDS011;43161;50.950;18.224;2024-03-23T10:53:42;16.40;;;8.30;;
57325;SDS011;43161;50.950;18.224;2024-03-23T10:56:07;16.30;;;7.50;;
57325;SDS011;43161;50.950;18.224;2024-03-23T11:01:06;17.30;;;8.20;;
57325;SDS011;43161;50.950;18.224;2024-03-23T11:03:36;17.30;;;8.40;;
57325;SDS011;43161;50.950;18.224;2024-03-23T11:06:06;17.00;;;8.40;;
57325;SDS011;43161;50.950;18.224;2024-03-23T11:08:36;13.20;;;6.90;;
57325;SDS011;43161;50.950;18.224;2024-03-23T11:13:47;13.50;;;6.40;;
57325;SDS011;43161;50.950;18.224;2024-03-23T11:21:53;13.90;;;6.10;;
57325;SDS011;43161;50.950;18.224;2024-03-23T11:24:20;13.40;;;6.90;;
57325;SDS011;43161;50.950;18.224;2024-03-23T11:26:47;11.70;;;6.40;;
57325;SDS011;43161;50.950;18.224;2024-03-23T11:29:16;13.40;;;7.00;;
57325;SDS011;43161;50.950;18.224;2024-03-23T11:31:50;16.60;;;7.60;;
57325;SDS011;43161;50.950;18.224;2024-03-23T11:34:17;19.40;;;8.10;;
57325;SDS011;43161;50.950;18.224;2024-03-23T11:36:44;14.10;;;7.30;;
57325;SDS011;43161;50.950;18.224;2024-03-23T11:41:46;13.40;;;6.70;;
57325;SDS011;43161;50.950;18.224;2024-03-23T11:44:16;13.00;;;6.50;;
57325;SDS011;43161;50.950;18.224;2024-03-23T11:46:45;11.80;;;5.90;;
57325;SDS011;43161;50.950;18.224;2024-03-23T11:51:52;12.00;;;5.60;;
57325;SDS011;43161;50.950;18.224;2024-03-23T11:54:25;12.50;;;6.00;;
57325;SDS011;43161;50.950;18.224;2024-03-23T11:56:58;12.10;;;5.60;;
57325;SDS011;43161;50.950;18.224;2024-03-23T12:01:59;11.30;;;5.20;;
57325;SDS011;43161;50.950;18.224;2024-03-23T12:04:27;10.60;;;4.70;;
57325;SDS011;43161;50.950;18.224;2024-03-23T12:09:37;10.20;;;4.80;;
57325;SDS011;43161;50.950;18.224;2024-03-23T12:12:10;10.30;;;4.40;;
57325;SDS011;43161;50.950;18.224;2024-03-23T12:14:36;10.90;;;4.20;;
57325;SDS011;43161;50.950;18.224;2024-03-23T12:19:44;11.00;;;4.40;;
57325;SDS011;43161;50.950;18.224;2024-03-23T12:22:11;12.30;;;4.60;;
57325;SDS011;43161;50.950;18.224;2024-03-23T12:24:36;10.10;;;4.90;;
57325;SDS011;43161;50.950;18.224;2024-03-23T12:27:02;10.00;;;4.90;;
57325;SDS011;43161;50.950;18.224;2024-03-23T12:29:30;13.30;;;5.30;;
57325;SDS011;43161;50.950;18.224;2024-03-23T12:32:00;12.60;;;6.30;;
57325;SDS011;43161;50.950;18.224;2024-03-23T12:34:27;10.60;;;5.20;;
57325;SDS011;43161;50.950;18.224;2024-03-23T12:36:53;10.60;;;5.30;;
57325;SDS011;43161;50.950;18.224;2024-03-23T12:39:19;10.70;;;5.40;;
57325;SDS011;43161;50.950;18.224;2024-03-23T12:41:46;12.80;;;5.50;;
57325;SDS011;43161;50.950;18.224;2024-03-23T12:44:13;11.60;;;5.40;;
57325;SDS011;43161;50.950;18.224;2024-03-23T12:46:39;11.30;;;4.60;;
57325;SDS011;43161;50.950;18.224;2024-03-23T12:49:04;9.00;;;4.30;;
57325;SDS011;43161;50.950;18.224;2024-03-23T12:51:31;11.10;;;4.60;;
57325;SDS011;43161;50.950;18.224;2024-03-23T12:53:57;11.20;;;4.70;;
57325;SDS011;43161;50.950;18.224;2024-03-23T12:56:23;9.30;;;4.60;;
57325;SDS011;43161;50.950;18.224;2024-03-23T12:58:48;11.60;;;5.90;;
57325;SDS011;43161;50.950;18.224;2024-03-23T13:01:17;12.40;;;6.60;;
57325;SDS011;43161;50.950;18.224;2024-03-23T13:03:43;14.20;;;7.50;;
57325;SDS011;43161;50.950;18.224;2024-03-23T13:06:12;13.50;;;8.80;;
57325;SDS011;43161;50.950;18.224;2024-03-23T13:08:37;13.50;;;8.00;;
57325;SDS011;43161;50.950;18.224;2024-03-23T13:11:03;15.30;;;9.00;;
57325;SDS011;43161;50.950;18.224;2024-03-23T13:13:28;16.10;;;8.40;;
57325;SDS011;43161;50.950;18.224;2024-03-23T13:15:56;16.70;;;10.50;;
57325;SDS011;43161;50.950;18.224;2024-03-23T13:18:21;17.20;;;11.30;;
57325;SDS011;43161;50.950;18.224;2024-03-23T13:20:47;19.30;;;12.60;;
57325;SDS011;43161;50.950;18.224;2024-03-23T13:23:13;18.90;;;12.10;;
57325;SDS011;43161;50.950;18.224;2024-03-23T13:25:38;18.80;;;11.80;;
57325;SDS011;43161;50.950;18.224;2024-03-23T13:28:04;19.90;;;12.00;;
57325;SDS011;43161;50.950;18.224;2024-03-23T13:30:30;17.30;;;9.10;;
57325;SDS011;43161;50.950;18.224;2024-03-23T13:32:55;13.70;;;8.60;;
57325;SDS011;43161;50.950;18.224;2024-03-23T13:35:21;12.60;;;6.50;;
57325;SDS011;43161;50.950;18.224;2024-03-23T13:37:47;14.20;;;7.40;;
57325;SDS011;43161;50.950;18.224;2024-03-23T13:40:13;16.50;;;9.80;;
57325;SDS011;43161;50.950;18.224;2024-03-23T13:42:39;15.60;;;9.90;;
57325;SDS011;43161;50.950;18.224;2024-03-23T13:45:05;14.80;;;9.20;;
57325;SDS011;43161;50.950;18.224;2024-03-23T13:47:31;14.00;;;7.40;;
57325;SDS011;43161;50.950;18.224;2024-03-23T13:49:57;11.80;;;7.00;;
57325;SDS011;43161;50.950;18.224;2024-03-23T13:52:22;16.00;;;7.40;;
57325;SDS011;43161;50.950;18.224;2024-03-23T13:54:51;14.30;;;7.30;;
57325;SDS011;43161;50.950;18.224;2024-03-23T13:57:17;12.10;;;7.20;;
57325;SDS011;43161;50.950;18.224;2024-03-23T13:59:46;13.50;;;8.50;;
57325;SDS011;43161;50.950;18.224;2024-03-23T14:02:14;12.10;;;6.50;;
57325;SDS011;43161;50.950;18.224;2024-03-23T14:04:40;13.90;;;7.10;;
57325;SDS011;43161;50.950;18.224;2024-03-23T14:07:05;12.40;;;7.60;;
57325;SDS011;43161;50.950;18.224;2024-03-23T14:09:33;14.50;;;9.10;;
57325;SDS011;43161;50.950;18.224;2024-03-23T14:11:58;13.20;;;6.50;;
57325;SDS011;43161;50.950;18.224;2024-03-23T14:14:25;13.70;;;6.90;;
57325;SDS011;43161;50.950;18.224;2024-03-23T14:16:51;12.70;;;7.30;;
57325;SDS011;43161;50.950;18.224;2024-03-23T14:19:16;14.60;;;7.90;;
57325;SDS011;43161;50.950;18.224;2024-03-23T14:21:42;12.50;;;6.60;;
57325;SDS011;43161;50.950;18.224;2024-03-23T14:24:08;13.20;;;7.20;;
57325;SDS011;43161;50.950;18.224;2024-03-23T14:26:34;16.00;;;8.60;;
57325;SDS011;43161;50.950;18.224;2024-03-23T14:29:00;16.10;;;9.30;;
57325;SDS011;43161;50.950;18.224;2024-03-23T14:31:26;22.90;;;12.60;;
57325;SDS011;43161;50.950;18.224;2024-03-23T14:33:52;14.70;;;7.90;;
57325;SDS011;43161;50.950;18.224;2024-03-23T14:36:18;11.40;;;4.90;;
57325;SDS011;43161;50.950;18.224;2024-03-23T14:38:47;16.80;;;5.40;;
57325;SDS011;43161;50.950;18.224;2024-03-23T14:41:13;11.90;;;5.00;;
57325;SDS011;43161;50.950;18.224;2024-03-23T14:43:39;11.50;;;4.80;;
57325;SDS011;43161;50.950;18.224;2024-03-23T14:46:05;11.80;;;4.80;;
57325;SDS011;43161;50.950;18.224;2024-03-23T14:48:38;10.80;;;4.60;;
57325;SDS011;43161;50.950;18.224;2024-03-23T14:51:04;12.30;;;4.60;;
57325;SDS011;43161;50.950;18.224;2024-03-23T14:53:31;12.70;;;4.60;;
57325;SDS011;43161;50.950;18.224;2024-03-23T14:55:57;10.80;;;4.30;;
57325;SDS011;43161;50.950;18.224;2024-03-23T14:58:25;11.50;;;5.10;;
57325;SDS011;43161;50.950;18.224;2024-03-23T15:00:50;11.70;;;4.70;;
57325;SDS011;43161;50.950;18.224;2024-03-23T15:03:17;11.20;;;4.40;;
57325;SDS011;43161;50.950;18.224;2024-03-23T15:08:27;10.20;;;4.50;;
57325;SDS011;43161;50.950;18.224;2024-03-23T15:10:59;11.10;;;4.80;;
57325;SDS011;43161;50.950;18.224;2024-03-23T15:13:26;13.40;;;5.10;;
57325;SDS011;43161;50.950;18.224;2024-03-23T15:15:52;10.00;;;4.10;;
57325;SDS011;43161;50.950;18.224;2024-03-23T15:18:17;9.80;;;4.20;;
57325;SDS011;43161;50.950;18.224;2024-03-23T15:21:02;9.90;;;4.00;;
57325;SDS011;43161;50.950;18.224;2024-03-23T15:23:31;11.20;;;3.80;;
57325;SDS011;43161;50.950;18.224;2024-03-23T15:26:00;11.30;;;5.90;;
57325;SDS011;43161;50.950;18.224;2024-03-23T15:28:27;9.80;;;4.00;;
57325;SDS011;43161;50.950;18.224;2024-03-23T15:31:06;13.10;;;5.60;;
57325;SDS011;43161;50.950;18.224;2024-03-23T15:33:33;34.10;;;16.60;;
57325;SDS011;43161;50.950;18.224;2024-03-23T15:35:59;35.40;;;17.50;;
57325;SDS011;43161;50.950;18.224;2024-03-23T15:38:27;61.80;;;30.80;;
57325;SDS011;43161;50.950;18.224;2024-03-23T15:40:54;38.00;;;21.50;;
57325;SDS011;43161;50.950;18.224;2024-03-23T15:43:20;9.90;;;4.40;;